Time;durP1;ratioP1;P1;durP2;ratioP2;P2;SDS_P1;SDS_P2;PMS_P1;PMS_P2;Temp;Humidity;BMP_temperature;BMP_pressure;BME280_temperature;BME280_humidity;BME280_pressure;Samples;Min_cycle;Max_cycle;Signal;HPM_P1;HPM_P2
2021/11/19 00:01:38;;;;;;;31.85;16.13;;;24.80;99.30;;;;;;4212896;28;20040;-69
2021/11/19 00:03:42;;;;;;;29.63;15.40;;;24.70;99.20;;;;;;4208000;28;20056;-68
2021/11/19 00:05:47;;;;;;;24.95;14.50;;;24.80;99.10;;;;;;4194237;28;20044;-69
2021/11/19 00:07:52;;;;;;;30.50;14.52;;;24.80;99.00;;;;;;4209752;28;20128;-69
2021/11/19 00:09:57;;;;;;;23.52;12.93;;;24.90;99.10;;;;;;4211520;28;20405;-68
2021/11/19 00:12:02;;;;;;;19.63;10.48;;;24.90;98.80;;;;;;4202764;28;20127;-71
2021/11/19 00:14:06;;;;;;;13.45;9.18;;;24.90;98.20;;;;;;4210370;28;20094;-70
2021/11/19 00:16:12;;;;;;;17.08;8.85;;;24.90;97.60;;;;;;4210407;28;20040;-70
2021/11/19 00:18:17;;;;;;;13.70;7.47;;;24.90;97.50;;;;;;4211605;28;20040;-70
2021/11/19 00:20:27;;;;;;;15.90;8.00;;;25.00;97.40;;;;;;4207845;28;20036;-69
2021/11/19 00:22:34;;;;;;;14.13;7.50;;;25.00;97.20;;;;;;4208987;28;20040;-69
2021/11/19 00:24:38;;;;;;;11.20;7.25;;;25.10;97.00;;;;;;4209820;28;20102;-68
2021/11/19 00:26:43;;;;;;;12.00;6.47;;;25.10;96.80;;;;;;4207545;28;20146;-68
2021/11/19 00:28:48;;;;;;;12.48;6.38;;;25.10;96.80;;;;;;4209607;28;20390;-67
2021/11/19 00:30:52;;;;;;;9.68;6.63;;;25.00;96.90;;;;;;4211325;28;20142;-68
2021/11/19 00:32:57;;;;;;;19.40;10.60;;;25.10;96.70;;;;;;4211189;28;20097;-68
2021/11/19 00:35:02;;;;;;;15.07;8.18;;;25.20;96.80;;;;;;4209118;28;20149;-67
2021/11/19 00:37:07;;;;;;;12.75;6.60;;;25.10;96.60;;;;;;4209798;28;20106;-68
2021/11/19 00:39:14;;;;;;;7.30;5.05;;;25.20;96.70;;;;;;4207704;28;20043;-68
2021/11/19 00:41:19;;;;;;;8.13;5.32;;;25.20;96.50;;;;;;4209514;28;20143;-68
2021/11/19 00:43:23;;;;;;;16.42;6.20;;;25.20;96.40;;;;;;4207044;28;20040;-68
2021/11/19 00:45:28;;;;;;;12.70;6.88;;;25.30;96.30;;;;;;4209956;28;20047;-67
2021/11/19 00:47:32;;;;;;;14.32;5.72;;;25.40;96.30;;;;;;4210311;28;20040;-68
2021/11/19 00:49:38;;;;;;;10.95;6.13;;;25.30;96.00;;;;;;4213118;28;20413;-68
2021/11/19 00:51:48;;;;;;;16.27;5.30;;;25.30;96.00;;;;;;4208625;28;20055;-67
2021/11/19 00:53:53;;;;;;;30.73;6.22;;;25.40;96.10;;;;;;4179766;28;20048;-67
2021/11/19 00:55:57;;;;;;;43.90;7.25;;;25.40;96.00;;;;;;4213005;28;20048;-67
2021/11/19 00:58:02;;;;;;;29.95;5.80;;;25.50;95.80;;;;;;4177097;28;20053;-67
2021/11/19 01:00:09;;;;;;;8.43;4.03;;;25.50;95.50;;;;;;4212419;28;20048;-68
2021/11/19 01:02:16;;;;;;;12.27;3.72;;;25.50;95.60;;;;;;4196627;28;20036;-67
2021/11/19 01:04:21;;;;;;;15.57;4.35;;;25.50;95.50;;;;;;4212778;28;20051;-67
2021/11/19 01:06:27;;;;;;;6.90;3.83;;;25.60;95.40;;;;;;4210882;28;20044;-67
2021/11/19 01:08:32;;;;;;;5.63;3.83;;;25.60;95.30;;;;;;4212630;28;20549;-68
2021/11/19 01:10:37;;;;;;;11.07;4.20;;;25.60;95.30;;;;;;4211843;28;20040;-68
2021/11/19 01:12:42;;;;;;;5.05;3.80;;;25.60;95.40;;;;;;4202889;28;20737;-68
2021/11/19 01:14:54;;;;;;;6.63;3.42;;;25.60;95.30;;;;;;4194018;28;20235;-68
2021/11/19 01:17:02;;;;;;;5.82;3.92;;;25.60;95.20;;;;;;4203417;28;20040;-67
2021/11/19 01:19:13;;;;;;;5.75;3.35;;;25.60;95.20;;;;;;4195828;28;20067;-68
2021/11/19 01:21:40;;;;;;;4.78;3.30;;;25.70;95.20;;;;;;4212505;28;20044;-67
2021/11/19 01:23:45;;;;;;;5.07;3.30;;;25.70;95.00;;;;;;4192445;28;20071;-67
2021/11/19 01:25:54;;;;;;;5.85;2.80;;;25.80;95.00;;;;;;4211623;28;20059;-66
2021/11/19 01:27:59;;;;;;;4.55;2.75;;;25.80;94.60;;;;;;4194238;28;20052;-67
2021/11/19 01:30:07;;;;;;;5.35;2.75;;;25.80;94.50;;;;;;4213342;28;20561;-67
2021/11/19 01:32:16;;;;;;;4.30;2.85;;;25.80;94.50;;;;;;4196114;28;20093;-67
2021/11/19 01:34:34;;;;;;;6.88;2.88;;;25.80;94.60;;;;;;4213333;28;20101;-67
2021/11/19 01:36:55;;;;;;;3.85;2.80;;;25.90;94.70;;;;;;4209398;28;20126;-66
2021/11/19 01:39:23;;;;;;;7.25;3.45;;;26.00;94.70;;;;;;4210058;28;20421;-66
2021/11/19 01:41:39;;;;;;;9.20;3.17;;;26.10;94.80;;;;;;4211148;28;20036;-67
2021/11/19 01:43:46;;;;;;;6.97;3.10;;;26.10;94.70;;;;;;4210831;28;20072;-67
2021/11/19 01:45:56;;;;;;;8.68;3.72;;;26.10;94.50;;;;;;4212067;28;20395;-67
2021/11/19 01:48:05;;;;;;;5.53;3.00;;;26.10;94.40;;;;;;4187009;28;20043;-67
2021/11/19 01:50:39;;;;;;;5.97;3.25;;;26.20;94.30;;;;;;4210995;28;20082;-67
2021/11/19 01:52:48;;;;;;;7.03;3.63;;;26.30;94.40;;;;;;4193759;28;20107;-67
2021/11/19 01:55:05;;;;;;;6.68;3.40;;;26.30;94.30;;;;;;4194808;28;20036;-67
2021/11/19 01:57:17;;;;;;;4.03;3.08;;;26.30;94.00;;;;;;4211694;28;20036;-67
2021/11/19 01:59:36;;;;;;;5.18;3.22;;;26.30;94.00;;;;;;4208587;28;20537;-68
2021/11/19 02:01:46;;;;;;;12.43;3.22;;;26.30;93.90;;;;;;4209589;28;20066;-68
2021/11/19 02:03:57;;;;;;;9.50;3.28;;;26.40;94.00;;;;;;4210722;28;20036;-67
2021/11/19 02:06:21;;;;;;;6.20;2.90;;;26.40;94.20;;;;;;4193206;28;20055;-67
2021/11/19 02:08:34;;;;;;;26.83;4.75;;;26.50;94.00;;;;;;4195765;28;20605;-67
2021/11/19 02:10:48;;;;;;;99.82;9.25;;;26.50;94.00;;;;;;4202132;28;20098;-67
2021/11/19 02:13:05;;;;;;;20.60;4.60;;;26.60;94.00;;;;;;4211724;28;20127;-66
2021/11/19 02:15:23;;;;;;;19.27;3.67;;;26.60;93.70;;;;;;4207273;28;20385;-67
2021/11/19 02:17:28;;;;;;;5.45;2.88;;;26.60;93.40;;;;;;4211624;28;20035;-66
2021/11/19 02:19:46;;;;;;;17.50;3.85;;;26.60;93.60;;;;;;4194401;28;20067;-66
2021/11/19 02:21:59;;;;;;;25.08;4.38;;;26.60;93.50;;;;;;4220828;28;20498;-66
2021/11/19 02:24:15;;;;;;;31.75;4.53;;;26.70;93.70;;;;;;4210086;28;20456;-67
2021/11/19 02:26:23;;;;;;;5.55;3.22;;;26.80;93.80;;;;;;4189995;28;20071;-66
2021/11/19 02:28:30;;;;;;;7.55;3.45;;;26.80;93.40;;;;;;4192564;28;20052;-67
2021/11/19 02:30:46;;;;;;;3.78;2.83;;;26.80;93.30;;;;;;4210222;28;20074;-66
2021/11/19 02:33:00;;;;;;;6.53;2.55;;;26.90;93.20;;;;;;4210989;28;20266;-67
2021/11/19 02:35:10;;;;;;;4.57;3.13;;;26.90;93.20;;;;;;4208684;28;20047;-66
2021/11/19 02:37:35;;;;;;;4.68;2.80;;;26.90;93.10;;;;;;4191507;28;20094;-66
2021/11/19 02:39:43;;;;;;;7.05;3.83;;;27.00;93.40;;;;;;4208432;28;20486;-66
2021/11/19 02:41:50;;;;;;;10.50;3.35;;;27.00;93.30;;;;;;4194737;28;20435;-67
2021/11/19 02:43:59;;;;;;;7.32;3.20;;;27.00;93.20;;;;;;4192084;28;20449;-66
2021/11/19 02:46:04;;;;;;;7.03;3.47;;;27.00;93.30;;;;;;4194924;28;20045;-67
2021/11/19 02:48:12;;;;;;;7.35;3.67;;;27.00;93.20;;;;;;4187452;28;20123;-67
2021/11/19 02:50:18;;;;;;;5.50;3.33;;;27.10;93.30;;;;;;4191683;28;20045;-67
2021/11/19 02:52:27;;;;;;;7.43;3.55;;;27.20;93.40;;;;;;4211106;28;20040;-67
2021/11/19 02:54:32;;;;;;;6.47;3.38;;;27.20;93.10;;;;;;4178179;28;20041;-66
2021/11/19 02:56:37;;;;;;;19.38;5.10;;;27.20;92.80;;;;;;4208502;28;20132;-66
2021/11/19 02:58:46;;;;;;;13.18;3.95;;;27.30;92.90;;;;;;4210172;28;20040;-66
2021/11/19 03:01:06;;;;;;;6.65;4.05;;;27.30;93.00;;;;;;4209846;28;20048;-66
2021/11/19 03:03:11;;;;;;;5.40;3.42;;;27.30;92.50;;;;;;4208122;28;20542;-67
2021/11/19 03:05:18;;;;;;;8.88;3.28;;;27.30;92.50;;;;;;4208072;28;20383;-66
2021/11/19 03:07:23;;;;;;;4.10;3.08;;;27.40;92.60;;;;;;4209048;28;20044;-67
2021/11/19 03:09:41;;;;;;;3.40;2.78;;;27.40;92.30;;;;;;4193177;28;20094;-67
2021/11/19 03:11:45;;;;;;;5.32;3.08;;;27.40;92.20;;;;;;4209037;28;20052;-67
2021/11/19 03:13:50;;;;;;;13.85;3.75;;;27.50;92.40;;;;;;4210488;28;20039;-67
2021/11/19 03:15:56;;;;;;;12.65;3.63;;;27.60;93.00;;;;;;4194342;28;20410;-66
2021/11/19 03:18:01;;;;;;;20.58;3.53;;;27.70;92.60;;;;;;4194206;28;20071;-66
2021/11/19 03:20:06;;;;;;;13.30;3.50;;;27.70;92.70;;;;;;4194178;28;20047;-67
2021/11/19 03:22:13;;;;;;;11.75;3.15;;;27.70;92.80;;;;;;4210679;28;20047;-67
2021/11/19 03:24:17;;;;;;;8.13;3.28;;;27.80;92.90;;;;;;4201514;28;20571;-67
2021/11/19 03:26:22;;;;;;;9.65;2.90;;;27.90;92.70;;;;;;4194390;28;20538;-67
2021/11/19 03:28:27;;;;;;;9.07;3.03;;;27.90;92.50;;;;;;4209965;28;20123;-67
2021/11/19 03:30:32;;;;;;;3.72;2.70;;;27.90;91.60;;;;;;4210680;28;20035;-67
2021/11/19 03:32:37;;;;;;;12.10;3.83;;;28.00;91.80;;;;;;4210336;28;20063;-67
2021/11/19 03:34:42;;;;;;;5.95;2.60;;;28.00;91.70;;;;;;4207815;28;20532;-67
2021/11/19 03:36:52;;;;;;;4.72;2.72;;;28.00;91.60;;;;;;4192927;28;20098;-67
2021/11/19 03:38:59;;;;;;;4.60;2.92;;;28.00;91.50;;;;;;4227058;28;20097;-66
2021/11/19 03:41:05;;;;;;;4.70;2.92;;;28.10;91.30;;;;;;4191093;28;20040;-67
2021/11/19 03:43:24;;;;;;;6.55;3.08;;;28.10;91.20;;;;;;4191524;28;20053;-67
2021/11/19 03:45:33;;;;;;;4.93;2.80;;;28.10;91.50;;;;;;4201638;28;20425;-67
2021/11/19 03:47:41;;;;;;;8.68;2.83;;;28.10;91.70;;;;;;4191330;28;20465;-67
2021/11/19 03:49:48;;;;;;;6.25;2.97;;;28.20;91.80;;;;;;4190138;28;20537;-67
2021/11/19 03:51:56;;;;;;;7.38;3.30;;;28.20;91.90;;;;;;4185516;28;20057;-67
2021/11/19 03:54:01;;;;;;;6.90;3.15;;;28.30;92.00;;;;;;4191243;28;20056;-67
2021/11/19 03:56:06;;;;;;;7.93;3.00;;;28.40;91.40;;;;;;4207425;28;20063;-66
2021/11/19 03:58:12;;;;;;;5.47;3.00;;;28.40;91.10;;;;;;4190826;28;20047;-67
2021/11/19 04:00:19;;;;;;;5.03;2.92;;;28.40;90.80;;;;;;4200315;28;20048;-67
2021/11/19 04:02:27;;;;;;;3.70;2.47;;;28.50;90.90;;;;;;4207596;28;20410;-67
2021/11/19 04:04:32;;;;;;;6.93;2.63;;;28.50;90.70;;;;;;4207190;28;20050;-67
2021/11/19 04:06:38;;;;;;;5.97;3.10;;;28.50;90.70;;;;;;4204698;28;20518;-67
2021/11/19 04:08:42;;;;;;;3.88;2.55;;;28.60;90.40;;;;;;4187991;28;20516;-67
2021/11/19 04:10:47;;;;;;;4.88;2.97;;;28.50;90.10;;;;;;4199436;28;20060;-67
2021/11/19 04:12:52;;;;;;;5.18;2.65;;;28.60;90.50;;;;;;4206657;28;20059;-67
2021/11/19 04:14:56;;;;;;;5.07;3.10;;;28.60;90.30;;;;;;4205793;28;20508;-67
2021/11/19 04:17:02;;;;;;;7.93;2.40;;;28.60;90.20;;;;;;4190840;28;20071;-67
2021/11/19 04:19:07;;;;;;;3.95;2.40;;;28.70;90.50;;;;;;4208986;28;20046;-66
2021/11/19 04:21:12;;;;;;;4.68;2.55;;;28.80;90.60;;;;;;4207657;28;20056;-66
2021/11/19 04:23:17;;;;;;;3.63;2.28;;;28.80;90.60;;;;;;4207577;28;20052;-67
2021/11/19 04:25:22;;;;;;;2.92;2.30;;;28.80;89.60;;;;;;4211358;28;20043;-67
2021/11/19 04:27:28;;;;;;;3.53;2.30;;;28.80;89.90;;;;;;4212520;28;20514;-67
2021/11/19 04:29:45;;;;;;;3.53;2.58;;;28.90;89.70;;;;;;4214093;28;20048;-68
2021/11/19 04:31:59;;;;;;;6.40;2.63;;;28.90;89.20;;;;;;4225517;28;20081;-67
2021/11/19 04:34:08;;;;;;;6.32;2.50;;;28.80;89.80;;;;;;4211678;28;20042;-67
2021/11/19 04:36:12;;;;;;;3.10;2.45;;;28.90;90.00;;;;;;4196179;28;20051;-68
2021/11/19 04:38:17;;;;;;;3.63;2.55;;;29.00;89.40;;;;;;4210652;28;20506;-68
2021/11/19 04:40:21;;;;;;;4.35;2.53;;;29.00;89.70;;;;;;4210190;28;20134;-66
2021/11/19 04:42:26;;;;;;;4.45;2.40;;;29.10;90.40;;;;;;4175815;28;20052;-66
2021/11/19 04:44:31;;;;;;;5.03;2.42;;;29.20;90.50;;;;;;4211128;28;20101;-66
2021/11/19 04:46:35;;;;;;;3.50;2.60;;;29.20;90.20;;;;;;4216870;28;20443;-67
2021/11/19 04:48:40;;;;;;;4.15;2.22;;;29.30;90.00;;;;;;4211098;28;20048;-66
2021/11/19 04:50:46;;;;;;;3.78;2.67;;;29.30;88.80;;;;;;4209926;28;20040;-67
2021/11/19 04:52:53;;;;;;;4.18;2.80;;;29.40;89.30;;;;;;4209229;28;20151;-67
2021/11/19 04:54:57;;;;;;;4.53;2.40;;;29.40;89.50;;;;;;4210190;28;20529;-66
2021/11/19 04:57:02;;;;;;;4.10;2.50;;;29.40;90.20;;;;;;4193858;28;20049;-67
2021/11/19 04:59:07;;;;;;;5.15;2.38;;;29.50;90.20;;;;;;4195943;28;20028;-68
2021/11/19 05:01:14;;;;;;;3.42;2.40;;;29.60;88.30;;;;;;4212777;28;20054;-67
2021/11/19 05:03:31;;;;;;;6.30;2.20;;;29.70;88.50;;;;;;4210845;28;20044;-67
2021/11/19 05:05:36;;;;;;;4.70;1.98;;;29.70;87.70;;;;;;4202099;28;20044;-67
2021/11/19 05:07:40;;;;;;;3.38;2.28;;;29.60;88.70;;;;;;4196168;28;20044;-67
2021/11/19 05:09:46;;;;;;;4.53;2.00;;;29.70;88.60;;;;;;4202719;28;20356;-67
2021/11/19 05:12:15;;;;;;;3.28;1.88;;;29.70;87.60;;;;;;4208129;28;20057;-67
2021/11/19 05:14:20;;;;;;;5.03;2.00;;;29.80;87.60;;;;;;4195324;28;20095;-67
2021/11/19 05:16:26;;;;;;;5.43;2.40;;;29.80;87.50;;;;;;4211761;28;20040;-68
2021/11/19 05:18:31;;;;;;;5.85;1.75;;;29.80;87.70;;;;;;4210776;28;20070;-68
2021/11/19 05:20:36;;;;;;;5.10;2.45;;;29.90;88.30;;;;;;4212058;28;20072;-67
2021/11/19 05:22:41;;;;;;;8.35;2.47;;;29.90;87.90;;;;;;4212064;28;20145;-69
2021/11/19 05:24:46;;;;;;;7.63;2.53;;;29.90;88.30;;;;;;4212431;28;20478;-67
2021/11/19 05:26:51;;;;;;;7.45;3.00;;;30.00;88.20;;;;;;4211883;28;20512;-71
2021/11/19 05:28:57;;;;;;;7.40;2.35;;;30.00;87.10;;;;;;4196051;28;20105;-67
2021/11/19 05:31:02;;;;;;;3.92;2.38;;;30.00;87.20;;;;;;4195972;28;20403;-67
2021/11/19 05:33:09;;;;;;;6.18;2.40;;;30.00;87.30;;;;;;4210524;28;20043;-67
2021/11/19 05:35:14;;;;;;;4.72;2.80;;;30.00;87.50;;;;;;4193808;28;20048;-67
2021/11/19 05:37:18;;;;;;;3.80;2.45;;;30.10;88.30;;;;;;4210003;28;20437;-67
2021/11/19 05:39:23;;;;;;;3.08;2.00;;;30.20;87.70;;;;;;4195019;28;20051;-67
2021/11/19 05:41:27;;;;;;;4.43;2.15;;;30.20;87.70;;;;;;4194202;28;20056;-67
2021/11/19 05:43:33;;;;;;;7.10;2.55;;;30.20;87.40;;;;;;4211992;28;20051;-67
2021/11/19 05:45:41;;;;;;;3.95;1.92;;;30.20;87.00;;;;;;4195432;28;20142;-67
2021/11/19 05:47:57;;;;;;;4.38;2.30;;;30.20;85.40;;;;;;4211088;28;20457;-66
2021/11/19 05:50:04;;;;;;;6.43;2.50;;;30.20;85.50;;;;;;4212890;28;20055;-66
2021/11/19 05:52:09;;;;;;;15.23;2.30;;;30.20;85.90;;;;;;4207581;28;20040;-67
2021/11/19 05:54:15;;;;;;;8.07;2.60;;;30.30;86.20;;;;;;4211112;28;20098;-67
2021/11/19 05:56:21;;;;;;;11.30;2.70;;;30.40;86.80;;;;;;4211736;28;20532;-67
2021/11/19 05:58:25;;;;;;;6.72;2.65;;;30.50;86.90;;;;;;4178307;28;20044;-66
2021/11/19 06:00:42;;;;;;;4.03;2.13;;;30.50;85.70;;;;;;4194666;28;20072;-67
2021/11/19 06:02:56;;;;;;;6.43;2.40;;;30.50;86.40;;;;;;4180702;28;20462;-67
2021/11/19 06:05:07;;;;;;;7.93;2.33;;;30.50;86.10;;;;;;4211238;28;20070;-67
2021/11/19 06:07:19;;;;;;;11.20;2.58;;;30.50;85.20;;;;;;4179053;28;20045;-68
2021/11/19 06:09:28;;;;;;;3.33;2.47;;;30.50;85.50;;;;;;4209699;28;20043;-67
2021/11/19 06:11:38;;;;;;;3.13;2.38;;;30.50;85.30;;;;;;4204749;28;20134;-67
2021/11/19 06:13:56;;;;;;;3.35;2.45;;;30.50;85.40;;;;;;4209107;28;20145;-68
2021/11/19 06:16:07;;;;;;;5.32;2.30;;;30.60;85.50;;;;;;4193291;28;20052;-67
2021/11/19 06:18:16;;;;;;;3.85;2.50;;;30.60;84.60;;;;;;4189954;28;20049;-68
2021/11/19 06:20:40;;;;;;;6.57;2.45;;;30.60;84.80;;;;;;4209495;28;20048;-67
2021/11/19 06:22:53;;;;;;;5.05;2.70;;;30.70;84.70;;;;;;4210440;28;20123;-67
2021/11/19 06:24:58;;;;;;;3.88;2.15;;;30.70;85.30;;;;;;4192324;28;20060;-67
2021/11/19 06:27:03;;;;;;;4.57;2.15;;;30.70;85.00;;;;;;4209414;28;20055;-67
2021/11/19 06:29:08;;;;;;;5.18;3.90;;;30.80;85.10;;;;;;4176501;28;20545;-67
2021/11/19 06:31:17;;;;;;;7.43;3.28;;;30.80;85.10;;;;;;4193315;28;20179;-68
2021/11/19 06:33:22;;;;;;;7.63;4.80;;;30.80;84.90;;;;;;4176682;28;20045;-68
2021/11/19 06:35:26;;;;;;;6.93;3.17;;;30.80;84.70;;;;;;4209933;28;20056;-68
2021/11/19 06:37:31;;;;;;;5.25;2.17;;;31.00;83.70;;;;;;4198815;28;20140;-68
2021/11/19 06:39:45;;;;;;;4.78;2.15;;;31.00;83.50;;;;;;4209343;28;20480;-68
2021/11/19 06:42:00;;;;;;;5.18;2.72;;;31.00;84.50;;;;;;4195532;28;20052;-66
2021/11/19 06:44:17;;;;;;;7.30;2.40;;;31.00;84.80;;;;;;4210844;28;20044;-67
2021/11/19 06:46:34;;;;;;;7.15;2.63;;;31.00;85.10;;;;;;4209082;28;20114;-66
2021/11/19 06:48:45;;;;;;;5.28;2.53;;;31.00;83.90;;;;;;4207038;28;20582;-67
2021/11/19 06:51:06;;;;;;;4.93;2.50;;;31.00;83.70;;;;;;4196033;28;20101;-67
2021/11/19 06:53:31;;;;;;;4.05;2.25;;;31.00;83.70;;;;;;4209723;28;20044;-67
2021/11/19 06:55:55;;;;;;;4.47;2.55;;;30.90;83.80;;;;;;4208956;28;20114;-67
2021/11/19 06:58:20;;;;;;;3.40;2.30;;;30.90;83.70;;;;;;4209980;28;20067;-67
2021/11/19 07:00:30;;;;;;;5.75;2.58;;;30.90;83.10;;;;;;4193203;28;20047;-66
2021/11/19 07:02:35;;;;;;;3.22;2.33;;;30.90;83.70;;;;;;4195772;28;20060;-66
2021/11/19 07:04:39;;;;;;;4.18;2.20;;;30.90;83.50;;;;;;4209265;28;20052;-68
2021/11/19 07:06:44;;;;;;;5.97;2.47;;;30.90;83.90;;;;;;4211413;28;20059;-67
2021/11/19 07:08:48;;;;;;;4.57;2.50;;;31.00;84.10;;;;;;4190157;28;20129;-67
2021/11/19 07:10:56;;;;;;;4.38;2.17;;;30.90;84.00;;;;;;4191552;28;20044;-68
2021/11/19 07:13:00;;;;;;;4.65;2.17;;;30.90;83.30;;;;;;4192383;28;20040;-68
2021/11/19 07:15:11;;;;;;;5.35;2.38;;;30.90;84.10;;;;;;4209745;28;20052;-68
2021/11/19 07:17:15;;;;;;;5.25;2.40;;;30.90;83.70;;;;;;4208085;28;20123;-68
2021/11/19 07:19:22;;;;;;;4.45;2.38;;;30.90;84.40;;;;;;4210942;28;20063;-67
2021/11/19 07:21:28;;;;;;;4.82;2.50;;;31.00;83.90;;;;;;4209895;28;20051;-68
2021/11/19 07:23:33;;;;;;;5.38;2.75;;;31.00;83.70;;;;;;4198116;28;20123;-68
2021/11/19 07:25:38;;;;;;;6.80;2.50;;;31.00;83.80;;;;;;4207485;28;20114;-67
2021/11/19 07:27:44;;;;;;;5.05;2.40;;;31.00;83.80;;;;;;4176960;28;20128;-68
2021/11/19 07:29:49;;;;;;;5.40;2.10;;;31.00;83.70;;;;;;4209667;28;20043;-67
2021/11/19 07:32:06;;;;;;;82.85;7.40;;;31.00;83.70;;;;;;4209721;28;20065;-68
2021/11/19 07:34:23;;;;;;;75.25;6.03;;;31.00;84.00;;;;;;4210033;28;20062;-68
2021/11/19 07:36:48;;;;;;;23.50;3.45;;;31.00;84.20;;;;;;4204058;28;20052;-69
2021/11/19 07:39:12;;;;;;;12.50;2.72;;;31.10;83.90;;;;;;4208551;28;20062;-68
2021/11/19 07:41:29;;;;;;;5.72;2.40;;;31.00;83.70;;;;;;4207939;28;20770;-68
2021/11/19 07:43:40;;;;;;;4.10;2.55;;;31.00;83.40;;;;;;4208951;28;20047;-68
2021/11/19 07:45:52;;;;;;;3.40;2.10;;;31.00;83.80;;;;;;4208843;28;20064;-71
2021/11/19 07:48:04;;;;;;;3.75;1.98;;;31.10;83.20;;;;;;4194966;28;20418;-67
2021/11/19 07:50:10;;;;;;;2.25;1.80;;;31.10;82.30;;;;;;4193606;28;20044;-69
2021/11/19 07:52:15;;;;;;;3.08;1.60;;;31.10;81.60;;;;;;4192876;28;20060;-68
2021/11/19 07:54:22;;;;;;;3.83;1.90;;;31.10;81.50;;;;;;4209576;28;20086;-68
2021/11/19 07:56:30;;;;;;;5.13;1.65;;;31.00;81.70;;;;;;4193230;28;20513;-68
2021/11/19 07:58:35;;;;;;;4.30;1.80;;;31.00;81.30;;;;;;4211857;28;20105;-68
2021/11/19 08:00:43;;;;;;;5.18;1.73;;;31.00;81.30;;;;;;4213571;28;20172;-68
2021/11/19 08:02:49;;;;;;;2.90;1.65;;;31.00;81.10;;;;;;4213063;28;20055;-69
2021/11/19 08:04:54;;;;;;;3.33;1.83;;;31.00;81.50;;;;;;4211393;28;20062;-69
2021/11/19 08:07:06;;;;;;;9.15;1.83;;;31.00;81.60;;;;;;4213185;28;20105;-69
2021/11/19 08:09:20;;;;;;;3.42;1.67;;;31.00;82.00;;;;;;4213592;28;20064;-68
2021/11/19 08:11:38;;;;;;;2.83;1.60;;;31.10;81.20;;;;;;4211786;28;20043;-68
2021/11/19 08:13:42;;;;;;;4.82;1.80;;;31.10;81.20;;;;;;4197178;28;20040;-68
2021/11/19 08:15:47;;;;;;;3.78;1.85;;;31.00;81.40;;;;;;4213098;28;20141;-70
2021/11/19 08:17:53;;;;;;;5.15;1.80;;;31.00;81.40;;;;;;4210742;28;20055;-67
2021/11/19 08:20:05;;;;;;;5.20;1.95;;;31.00;81.30;;;;;;4208000;28;20041;-68
2021/11/19 08:22:09;;;;;;;3.33;1.70;;;31.10;81.20;;;;;;4213773;28;20597;-69
2021/11/19 08:24:14;;;;;;;5.18;1.90;;;31.20;81.20;;;;;;4210533;28;20036;-68
2021/11/19 08:26:23;;;;;;;5.00;1.80;;;31.10;80.90;;;;;;4212420;28;20075;-70
2021/11/19 08:28:29;;;;;;;3.60;1.70;;;31.10;80.80;;;;;;4211028;28;20506;-69
2021/11/19 08:30:37;;;;;;;2.85;1.90;;;31.00;80.70;;;;;;4211714;28;20242;-69
2021/11/19 08:32:42;;;;;;;6.55;2.00;;;31.00;81.50;;;;;;4212314;28;20052;-68
2021/11/19 08:34:48;;;;;;;4.50;1.90;;;31.00;81.80;;;;;;4195038;28;20071;-69
2021/11/19 08:36:52;;;;;;;7.78;2.83;;;30.90;81.10;;;;;;4212706;28;20094;-69
2021/11/19 08:38:57;;;;;;;7.03;3.53;;;30.90;80.80;;;;;;4208614;28;20068;-68
2021/11/19 08:41:02;;;;;;;7.55;3.90;;;30.80;80.90;;;;;;4210267;28;20075;-65
2021/11/19 08:43:08;;;;;;;5.75;2.53;;;30.70;81.30;;;;;;4208529;28;20066;-65
2021/11/19 08:45:14;;;;;;;7.28;2.70;;;30.70;81.70;;;;;;4207559;28;20533;-69
2021/11/19 08:47:25;;;;;;;6.18;2.75;;;30.70;82.50;;;;;;4210123;28;20476;-68
2021/11/19 08:49:33;;;;;;;7.85;2.42;;;30.70;82.40;;;;;;4210839;28;20175;-69
2021/11/19 08:51:37;;;;;;;3.60;1.75;;;30.70;82.10;;;;;;4210778;28;20047;-68
2021/11/19 08:53:42;;;;;;;5.72;1.70;;;30.60;81.40;;;;;;4209236;28;20386;-69
2021/11/19 08:55:49;;;;;;;6.63;2.15;;;30.60;82.40;;;;;;4209720;28;20455;-67
2021/11/19 08:57:55;;;;;;;4.07;2.10;;;30.60;81.80;;;;;;4208461;28;20066;-68
2021/11/19 09:00:00;;;;;;;4.10;2.20;;;30.70;82.20;;;;;;4210197;28;20043;-67
2021/11/19 09:02:09;;;;;;;7.90;2.60;;;30.60;82.70;;;;;;4209097;28;20067;-68
2021/11/19 09:04:34;;;;;;;10.05;3.38;;;30.60;82.80;;;;;;4209194;28;20076;-68
2021/11/19 09:06:40;;;;;;;32.85;19.10;;;30.60;82.70;;;;;;4208652;28;20304;-68
2021/11/19 09:08:45;;;;;;;53.25;40.58;;;30.60;82.90;;;;;;4208573;28;20040;-67
2021/11/19 09:10:51;;;;;;;41.58;31.02;;;30.60;83.30;;;;;;4208859;28;20044;-67
2021/11/19 09:12:56;;;;;;;22.13;17.55;;;30.50;84.10;;;;;;4207665;28;20131;-67
2021/11/19 09:15:00;;;;;;;19.92;11.30;;;30.60;83.30;;;;;;4208294;28;20048;-68
2021/11/19 09:17:11;;;;;;;14.82;9.95;;;30.50;83.00;;;;;;4208991;28;20040;-67
2021/11/19 09:19:28;;;;;;;11.43;6.03;;;30.50;83.00;;;;;;4208675;28;20661;-68
2021/11/19 09:21:44;;;;;;;10.13;6.05;;;30.50;83.30;;;;;;4207117;28;20115;-69
2021/11/19 09:23:55;;;;;;;8.00;5.13;;;30.50;83.30;;;;;;4208808;28;20048;-68
2021/11/19 09:26:05;;;;;;;7.72;2.65;;;30.50;83.50;;;;;;4207748;28;20135;-68
2021/11/19 09:28:10;;;;;;;10.98;3.80;;;30.50;83.50;;;;;;4198035;28;20044;-68
2021/11/19 09:30:18;;;;;;;10.80;4.10;;;30.50;83.90;;;;;;4209860;28;20044;-68
2021/11/19 09:32:24;;;;;;;7.88;4.07;;;30.40;84.10;;;;;;4208078;28;20077;-67
2021/11/19 09:34:29;;;;;;;8.13;4.10;;;30.50;84.30;;;;;;4207016;28;20048;-67
2021/11/19 09:36:35;;;;;;;10.13;5.20;;;30.50;84.60;;;;;;4208664;28;20040;-68
2021/11/19 09:38:40;;;;;;;9.02;3.95;;;30.50;84.70;;;;;;4209431;28;20182;-68
2021/11/19 09:40:50;;;;;;;9.20;3.47;;;30.50;85.30;;;;;;4208399;28;20040;-68
2021/11/19 09:43:11;;;;;;;13.55;3.97;;;30.50;86.40;;;;;;4208312;28;20452;-69
2021/11/19 09:45:34;;;;;;;13.77;3.80;;;30.50;88.10;;;;;;4208196;28;20052;-69
2021/11/19 09:47:57;;;;;;;9.35;3.55;;;30.40;88.60;;;;;;4208447;28;20453;-69
2021/11/19 09:50:26;;;;;;;16.85;4.20;;;30.40;90.00;;;;;;4209551;28;20052;-69
2021/11/19 09:52:53;;;;;;;16.23;4.13;;;30.30;90.10;;;;;;4204576;28;20044;-67
2021/11/19 09:55:22;;;;;;;14.52;4.28;;;30.40;89.90;;;;;;4206175;28;20040;-69
2021/11/19 09:57:44;;;;;;;12.13;4.85;;;30.40;90.80;;;;;;4208506;28;20607;-69
2021/11/19 10:00:01;;;;;;;;;;;30.40;90.40;;;;;;4205468;28;20521;-68
2021/11/19 10:02:29;;;;;;;12.68;4.20;;;30.40;90.40;;;;;;4208988;28;20353;-69
2021/11/19 10:04:53;;;;;;;11.55;4.40;;;30.40;90.40;;;;;;4210520;28;20051;-69
2021/11/19 10:07:00;;;;;;;11.13;3.83;;;30.40;90.50;;;;;;4208296;28;20052;-70
2021/11/19 10:09:22;;;;;;;13.88;4.53;;;30.30;89.60;;;;;;4208789;28;20048;-69
2021/11/19 10:11:31;;;;;;;15.80;4.70;;;30.30;90.00;;;;;;4205945;28;20048;-70
2021/11/19 10:13:48;;;;;;;14.93;4.40;;;30.30;89.60;;;;;;4206388;28;20044;-70
2021/11/19 10:16:05;;;;;;;17.08;5.10;;;30.30;89.80;;;;;;4209093;28;20573;-68
2021/11/19 10:18:22;;;;;;;17.50;7.53;;;30.30;89.80;;;;;;4205259;28;20036;-68
2021/11/19 10:20:37;;;;;;;14.70;5.50;;;30.20;90.00;;;;;;4208841;28;20399;-69
2021/11/19 10:22:50;;;;;;;14.02;7.65;;;30.20;90.10;;;;;;4206534;28;20048;-68
2021/11/19 10:25:09;;;;;;;15.55;9.20;;;30.20;90.10;;;;;;4208425;28;20389;-69
2021/11/19 10:27:17;;;;;;;14.02;7.60;;;30.20;90.30;;;;;;4208515;28;20071;-69
2021/11/19 10:29:37;;;;;;;15.32;7.53;;;30.10;90.50;;;;;;4206951;28;20134;-70
2021/11/19 10:31:42;;;;;;;17.38;7.70;;;30.00;90.80;;;;;;4203629;28;20590;-69
2021/11/19 10:34:14;;;;;;;16.48;6.72;;;30.00;90.80;;;;;;4209139;28;20165;-69
2021/11/19 10:36:28;;;;;;;13.80;6.90;;;30.00;91.00;;;;;;4188922;28;20055;-69
2021/11/19 10:38:39;;;;;;;24.63;6.80;;;30.00;91.20;;;;;;4206820;28;20131;-69
2021/11/19 10:41:20;;;;;;;19.92;6.70;;;30.00;91.30;;;;;;4208035;28;20032;-70
2021/11/19 10:43:47;;;;;;;23.83;7.18;;;29.90;91.40;;;;;;4206966;28;20036;-71
2021/11/19 10:46:13;;;;;;;20.13;6.50;;;29.90;91.50;;;;;;4208027;28;20036;-69
2021/11/19 10:48:33;;;;;;;17.67;6.20;;;29.90;91.50;;;;;;4206778;28;20094;-69
2021/11/19 10:51:04;;;;;;;18.90;7.10;;;29.80;91.50;;;;;;4205674;28;20105;-67
2021/11/19 10:53:42;;;;;;;26.20;7.85;;;29.80;91.60;;;;;;4210261;28;20055;-69
2021/11/19 10:56:12;;;;;;;26.15;9.38;;;29.80;91.60;;;;;;4208122;28;20059;-68
2021/11/19 10:58:31;;;;;;;30.80;10.68;;;29.70;91.60;;;;;;4208457;28;20051;-67
2021/11/19 11:01:02;;;;;;;29.40;10.55;;;29.70;91.70;;;;;;4209357;28;20333;-67
2021/11/19 11:03:11;;;;;;;32.25;10.82;;;29.70;91.90;;;;;;4206634;28;20512;-67
2021/11/19 11:16:59;;;;;;;28.15;9.90;;;29.60;91.70;;;;;;4174038;27;20503;-64
2021/11/19 11:19:25;;;;;;;19.58;10.35;;;29.60;92.40;;;;;;4175129;28;20056;-66
2021/11/19 11:40:38;;;;;;;30.13;16.83;;;29.40;92.80;;;;;;4204882;27;20866;-66
2021/11/19 11:43:26;;;;;;;28.75;15.68;;;29.40;93.20;;;;;;4192432;28;20450;-66
2021/11/19 11:45:56;;;;;;;34.13;12.43;;;29.40;93.20;;;;;;4189041;28;20063;-66